Time;durP1;ratioP1;P1;durP2;ratioP2;P2;SDS_P1;SDS_P2;PMS_P1;PMS_P2;Temp;Humidity;BMP_temperature;BMP_pressure;BME280_temperature;BME280_humidity;BME280_pressure;Samples;Min_cycle;Max_cycle;Signal;HPM_P1;HPM_P2
2023/12/05 00:00:38;;;;;;;15.20;10.63;;;;;;;;;;5037543;28;20576;-79
2023/12/05 00:03:03;;;;;;;19.73;12.00;;;;;;;;;;5047444;28;20236;-79
2023/12/05 00:05:28;;;;;;;16.67;11.47;;;;;;;;;;5034031;28;20174;-79
2023/12/05 00:07:53;;;;;;;17.33;11.07;;;;;;;;;;5041907;28;20220;-79
2023/12/05 00:10:19;;;;;;;16.90;10.63;;;;;;;;;;5042767;28;20194;-79
2023/12/05 00:12:44;;;;;;;21.93;12.77;;;;;;;;;;5043678;28;20182;-79
2023/12/05 00:15:09;;;;;;;20.33;12.97;;;;;;;;;;5047334;28;20174;-79
2023/12/05 00:17:35;;;;;;;20.00;11.53;;;;;;;;;;5038671;28;20264;-79
2023/12/05 00:20:00;;;;;;;21.63;13.43;;;;;;;;;;5041031;28;20231;-79
2023/12/05 00:22:28;;;;;;;20.27;13.13;;;;;;;;;;5036016;28;20201;-80
2023/12/05 00:24:53;;;;;;;19.43;12.83;;;;;;;;;;5037820;28;20190;-81
2023/12/05 00:27:19;;;;;;;24.00;14.20;;;;;;;;;;5029091;28;20175;-79
2023/12/05 00:29:45;;;;;;;25.77;14.83;;;;;;;;;;5040824;28;20221;-79
2023/12/05 00:32:10;;;;;;;22.63;13.93;;;;;;;;;;5030740;28;20195;-80
2023/12/05 00:34:35;;;;;;;22.50;13.37;;;;;;;;;;5040320;28;20185;-79
2023/12/05 00:37:00;;;;;;;23.23;13.00;;;;;;;;;;5040177;28;20182;-80
2023/12/05 00:39:25;;;;;;;24.33;15.23;;;;;;;;;;5040531;28;20174;-81
2023/12/05 00:41:50;;;;;;;25.03;14.77;;;;;;;;;;5040483;28;20291;-80
2023/12/05 00:44:16;;;;;;;26.50;15.47;;;;;;;;;;5037655;28;20174;-80
2023/12/05 00:46:41;;;;;;;24.97;16.53;;;;;;;;;;5030007;28;20176;-80
2023/12/05 00:49:07;;;;;;;27.50;17.90;;;;;;;;;;5034248;28;20213;-79
2023/12/05 00:51:32;;;;;;;29.87;16.57;;;;;;;;;;5034204;28;20170;-81
2023/12/05 00:53:57;;;;;;;24.47;14.20;;;;;;;;;;5040873;28;20182;-79
2023/12/05 00:56:22;;;;;;;26.10;14.77;;;;;;;;;;5046265;28;20178;-80
2023/12/05 00:58:48;;;;;;;28.50;15.90;;;;;;;;;;5038027;28;20178;-81
2023/12/05 01:01:13;;;;;;;27.37;14.73;;;;;;;;;;5044910;28;20179;-80
2023/12/05 01:03:38;;;;;;;23.03;11.77;;;;;;;;;;5033053;28;20194;-80
2023/12/05 01:06:04;;;;;;;28.60;13.67;;;;;;;;;;5031517;28;20203;-80
2023/12/05 01:08:29;;;;;;;28.77;14.03;;;;;;;;;;5033169;28;20171;-80
2023/12/05 01:10:54;;;;;;;25.33;15.67;;;;;;;;;;5038763;28;20174;-80
2023/12/05 01:13:19;;;;;;;28.10;14.57;;;;;;;;;;5036497;28;20181;-80
2023/12/05 01:15:45;;;;;;;25.03;13.43;;;;;;;;;;5029867;28;20274;-80
2023/12/05 01:18:10;;;;;;;19.73;10.90;;;;;;;;;;5036192;28;20193;-80
2023/12/05 01:20:36;;;;;;;17.70;9.97;;;;;;;;;;5034203;28;20198;-79
2023/12/05 01:23:01;;;;;;;18.70;10.57;;;;;;;;;;5034728;28;20242;-80
2023/12/05 01:25:26;;;;;;;13.73;9.03;;;;;;;;;;5045345;28;20181;-79
2023/12/05 01:27:51;;;;;;;12.23;8.27;;;;;;;;;;5042808;28;20174;-79
2023/12/05 01:30:17;;;;;;;11.90;8.03;;;;;;;;;;5034832;28;20299;-79
2023/12/05 01:32:42;;;;;;;11.53;7.40;;;;;;;;;;5030958;28;20222;-79
2023/12/05 01:35:07;;;;;;;10.00;6.57;;;;;;;;;;5036342;28;20182;-79
2023/12/05 01:37:32;;;;;;;10.97;6.87;;;;;;;;;;5042091;28;20182;-79
2023/12/05 01:39:58;;;;;;;9.33;6.47;;;;;;;;;;5031367;28;20183;-79
2023/12/05 01:42:23;;;;;;;10.37;6.73;;;;;;;;;;5042969;28;20205;-79
2023/12/05 01:44:48;;;;;;;10.80;6.47;;;;;;;;;;5038383;28;20178;-79
2023/12/05 01:47:16;;;;;;;8.03;5.50;;;;;;;;;;5041452;28;20248;-79
2023/12/05 01:49:41;;;;;;;12.40;6.47;;;;;;;;;;5040247;28;20462;-78
2023/12/05 01:52:06;;;;;;;11.93;7.23;;;;;;;;;;5038173;28;20213;-78
2023/12/05 01:54:32;;;;;;;10.93;6.53;;;;;;;;;;5031367;28;20237;-79
2023/12/05 01:56:58;;;;;;;9.83;6.37;;;;;;;;;;5035537;28;20233;-80
2023/12/05 01:59:25;;;;;;;8.90;6.13;;;;;;;;;;5028935;28;20186;-78
2023/12/05 02:01:51;;;;;;;9.80;6.27;;;;;;;;;;5042819;28;20201;-79
2023/12/05 02:04:17;;;;;;;11.40;6.13;;;;;;;;;;5034719;28;20171;-79
2023/12/05 02:06:42;;;;;;;13.13;6.67;;;;;;;;;;5039242;28;20272;-79
2023/12/05 02:09:08;;;;;;;7.90;5.80;;;;;;;;;;5034503;28;20209;-79
2023/12/05 02:11:34;;;;;;;8.67;5.23;;;;;;;;;;5029611;28;20178;-79
2023/12/05 02:13:59;;;;;;;8.03;5.37;;;;;;;;;;5055168;28;20205;-79
2023/12/05 02:16:28;;;;;;;8.53;6.20;;;;;;;;;;5035150;28;20224;-79
2023/12/05 02:18:57;;;;;;;9.40;5.70;;;;;;;;;;5032749;28;20186;-78
2023/12/05 02:21:29;;;;;;;7.87;6.37;;;;;;;;;;5034608;28;20211;-79
2023/12/05 02:24:03;;;;;;;8.57;5.73;;;;;;;;;;5041744;28;20187;-80
2023/12/05 02:26:47;;;;;;;8.43;6.20;;;;;;;;;;5037517;28;20181;-79
2023/12/05 02:29:13;;;;;;;10.67;7.00;;;;;;;;;;5036439;28;20202;-79
2023/12/05 02:31:38;;;;;;;10.73;6.47;;;;;;;;;;5037094;28;20229;-79
2023/12/05 02:34:03;;;;;;;10.47;6.47;;;;;;;;;;5033737;28;20207;-79
2023/12/05 02:36:34;;;;;;;9.03;5.80;;;;;;;;;;5041751;28;20171;-78
2023/12/05 02:39:29;;;;;;;7.43;5.50;;;;;;;;;;5034146;28;20186;-78
2023/12/05 02:41:55;;;;;;;8.83;5.97;;;;;;;;;;5016887;28;20222;-78
2023/12/05 02:44:23;;;;;;;9.10;5.70;;;;;;;;;;5035787;28;20234;-78
2023/12/05 02:46:49;;;;;;;8.57;5.47;;;;;;;;;;5039045;28;20186;-79
2023/12/05 02:49:14;;;;;;;7.97;5.30;;;;;;;;;;5034886;28;20183;-78
2023/12/05 02:51:40;;;;;;;6.13;4.90;;;;;;;;;;5039186;28;20171;-78
2023/12/05 02:54:06;;;;;;;8.83;5.57;;;;;;;;;;5032695;28;20182;-78
2023/12/05 02:56:32;;;;;;;9.70;5.70;;;;;;;;;;5031456;28;20171;-78
2023/12/05 02:58:57;;;;;;;10.47;5.07;;;;;;;;;;5043586;28;20216;-79
2023/12/05 03:01:23;;;;;;;9.13;5.70;;;;;;;;;;5037411;28;20236;-78
2023/12/05 03:03:48;;;;;;;11.10;6.47;;;;;;;;;;5043204;28;20304;-79
2023/12/05 03:06:13;;;;;;;13.50;7.30;;;;;;;;;;5044026;28;20179;-80
2023/12/05 03:08:38;;;;;;;20.93;10.10;;;;;;;;;;5042726;28;20201;-78
2023/12/05 03:11:03;;;;;;;24.17;11.90;;;;;;;;;;5042367;28;20181;-78
2023/12/05 03:13:29;;;;;;;27.97;12.03;;;;;;;;;;5045301;28;20226;-78
2023/12/05 03:15:54;;;;;;;31.83;13.67;;;;;;;;;;5042753;28;20181;-78
2023/12/05 03:18:19;;;;;;;34.70;14.40;;;;;;;;;;5040971;28;20186;-78
2023/12/05 03:20:44;;;;;;;32.97;16.57;;;;;;;;;;5045404;28;20193;-78
2023/12/05 03:23:10;;;;;;;42.37;16.90;;;;;;;;;;5037997;28;20206;-78
2023/12/05 03:25:35;;;;;;;34.23;16.20;;;;;;;;;;5044273;28;20236;-78
2023/12/05 03:28:00;;;;;;;37.13;15.60;;;;;;;;;;5040232;28;20170;-78
2023/12/05 03:30:25;;;;;;;43.93;16.37;;;;;;;;;;5041852;28;20170;-78
2023/12/05 03:32:50;;;;;;;42.00;16.33;;;;;;;;;;5041929;28;21095;-78
2023/12/05 03:35:16;;;;;;;36.40;16.70;;;;;;;;;;5033941;28;20194;-78
2023/12/05 03:37:41;;;;;;;44.40;17.63;;;;;;;;;;5038671;28;20190;-78
2023/12/05 03:40:06;;;;;;;43.10;19.43;;;;;;;;;;5041345;28;20183;-78
2023/12/05 03:42:31;;;;;;;45.87;19.33;;;;;;;;;;5033970;28;20225;-78
2023/12/05 03:44:57;;;;;;;49.43;20.23;;;;;;;;;;5043057;28;20181;-78
2023/12/05 03:47:22;;;;;;;51.30;19.13;;;;;;;;;;5031647;28;20280;-78
2023/12/05 03:49:47;;;;;;;41.00;18.40;;;;;;;;;;5042861;28;20332;-78
2023/12/05 03:52:12;;;;;;;49.87;19.00;;;;;;;;;;5043577;28;20178;-78
2023/12/05 03:54:38;;;;;;;49.80;18.83;;;;;;;;;;5037672;28;20186;-79
2023/12/05 03:57:03;;;;;;;49.60;17.27;;;;;;;;;;5031683;28;20222;-77
2023/12/05 03:59:28;;;;;;;38.57;17.33;;;;;;;;;;5040824;28;20200;-78
2023/12/05 04:01:53;;;;;;;43.20;18.67;;;;;;;;;;5034321;28;20185;-78
2023/12/05 04:04:19;;;;;;;38.00;16.30;;;;;;;;;;5035352;28;20178;-78
2023/12/05 04:06:44;;;;;;;35.63;15.43;;;;;;;;;;5033581;28;20178;-77
2023/12/05 04:09:09;;;;;;;37.53;15.53;;;;;;;;;;5044774;28;20178;-78
2023/12/05 04:11:34;;;;;;;39.83;15.83;;;;;;;;;;5036488;28;20193;-78
2023/12/05 04:14:00;;;;;;;34.90;14.90;;;;;;;;;;5041449;28;20183;-78
2023/12/05 04:16:25;;;;;;;38.27;15.10;;;;;;;;;;5041787;28;20198;-78
2023/12/05 04:18:51;;;;;;;37.13;15.13;;;;;;;;;;5033367;28;20186;-78
2023/12/05 04:21:17;;;;;;;37.67;14.40;;;;;;;;;;5033140;28;20414;-78
2023/12/05 04:23:42;;;;;;;31.07;13.77;;;;;;;;;;5046655;28;20251;-78
2023/12/05 04:26:07;;;;;;;29.23;12.73;;;;;;;;;;5041106;28;20186;-78
2023/12/05 04:28:33;;;;;;;36.43;12.30;;;;;;;;;;5032686;28;20175;-79
2023/12/05 04:30:58;;;;;;;33.80;12.03;;;;;;;;;;5031074;28;20181;-78
2023/12/05 04:33:23;;;;;;;35.37;14.30;;;;;;;;;;5032171;28;20208;-78
2023/12/05 04:35:48;;;;;;;33.47;14.10;;;;;;;;;;5032188;28;20189;-78
2023/12/05 04:38:14;;;;;;;40.37;15.33;;;;;;;;;;5042092;28;20183;-77
2023/12/05 04:40:40;;;;;;;40.47;15.50;;;;;;;;;;5044990;28;20480;-77
2023/12/05 04:43:05;;;;;;;34.40;14.93;;;;;;;;;;5041506;28;20230;-77
2023/12/05 04:45:30;;;;;;;42.20;15.00;;;;;;;;;;5041314;28;20174;-78
2023/12/05 04:47:55;;;;;;;39.47;15.10;;;;;;;;;;5039327;28;20177;-77
2023/12/05 04:50:20;;;;;;;39.93;15.50;;;;;;;;;;5037935;28;20182;-77
2023/12/05 04:52:46;;;;;;;39.13;15.33;;;;;;;;;;5043804;28;20182;-77
2023/12/05 04:55:11;;;;;;;40.27;15.30;;;;;;;;;;5034689;28;20225;-77
2023/12/05 04:57:36;;;;;;;37.73;15.60;;;;;;;;;;5031714;28;20217;-77
2023/12/05 05:00:03;;;;;;;36.73;16.23;;;;;;;;;;5055946;28;20179;-77
2023/12/05 05:02:28;;;;;;;34.07;13.87;;;;;;;;;;5042276;28;20205;-77
2023/12/05 05:04:54;;;;;;;32.97;14.47;;;;;;;;;;5037091;28;20200;-78
2023/12/05 05:07:19;;;;;;;37.40;13.27;;;;;;;;;;5038584;28;20230;-77
2023/12/05 05:09:44;;;;;;;41.03;14.70;;;;;;;;;;5029514;28;20221;-78
2023/12/05 05:12:10;;;;;;;40.17;15.97;;;;;;;;;;5039386;28;20223;-78
2023/12/05 05:14:38;;;;;;;35.70;13.77;;;;;;;;;;5033098;28;20179;-79
2023/12/05 05:17:04;;;;;;;33.50;14.53;;;;;;;;;;5046877;28;20182;-77
2023/12/05 05:19:32;;;;;;;39.37;13.70;;;;;;;;;;5033990;28;20209;-77
2023/12/05 05:21:58;;;;;;;33.67;13.53;;;;;;;;;;5033245;28;20185;-77
2023/12/05 05:24:23;;;;;;;32.23;13.37;;;;;;;;;;5031155;28;20522;-78
2023/12/05 05:26:48;;;;;;;31.13;13.13;;;;;;;;;;5028725;28;20179;-78
2023/12/05 05:29:13;;;;;;;74.23;34.93;;;;;;;;;;5040026;28;20182;-77
2023/12/05 05:31:38;;;;;;;38.53;14.57;;;;;;;;;;5044564;28;20223;-78
2023/12/05 05:34:04;;;;;;;30.83;13.73;;;;;;;;;;5047153;28;20213;-77
2023/12/05 05:36:29;;;;;;;38.67;16.03;;;;;;;;;;5043321;28;20219;-77
2023/12/05 05:38:54;;;;;;;32.93;12.70;;;;;;;;;;5040626;28;20186;-78
2023/12/05 05:41:19;;;;;;;32.87;14.30;;;;;;;;;;5034298;28;20173;-77
2023/12/05 05:43:44;;;;;;;35.20;14.23;;;;;;;;;;5031510;28;20206;-77
2023/12/05 05:46:10;;;;;;;29.97;13.17;;;;;;;;;;5035955;28;20182;-77
2023/12/05 05:48:35;;;;;;;33.13;12.77;;;;;;;;;;5034711;28;20166;-77
2023/12/05 05:51:00;;;;;;;33.90;15.57;;;;;;;;;;5038072;28;20198;-77
2023/12/05 05:53:26;;;;;;;28.17;13.93;;;;;;;;;;5033660;28;20182;-77
2023/12/05 05:55:51;;;;;;;38.50;18.37;;;;;;;;;;5042384;28;20178;-77
2023/12/05 05:58:16;;;;;;;60.03;35.10;;;;;;;;;;5033889;28;20222;-78
2023/12/05 06:00:41;;;;;;;46.07;19.33;;;;;;;;;;5045972;28;20188;-77
2023/12/05 06:03:06;;;;;;;47.87;19.00;;;;;;;;;;5036561;28;20248;-78
2023/12/05 06:05:31;;;;;;;50.20;21.20;;;;;;;;;;5048017;28;20261;-77
2023/12/05 06:07:57;;;;;;;47.43;19.37;;;;;;;;;;5036321;28;20212;-78
2023/12/05 06:10:22;;;;;;;46.27;21.50;;;;;;;;;;5030367;28;20175;-77
2023/12/05 06:12:47;;;;;;;37.17;18.00;;;;;;;;;;5043655;28;20174;-77
2023/12/05 06:15:12;;;;;;;39.30;15.40;;;;;;;;;;5036651;28;20178;-77
2023/12/05 06:17:38;;;;;;;44.50;18.53;;;;;;;;;;5034233;28;20287;-79
2023/12/05 06:20:05;;;;;;;32.73;14.07;;;;;;;;;;5036485;28;20181;-77
2023/12/05 06:22:38;;;;;;;33.40;14.10;;;;;;;;;;5037454;28;20228;-78
2023/12/05 06:25:03;;;;;;;26.97;11.93;;;;;;;;;;5038846;28;20171;-77
2023/12/05 06:27:28;;;;;;;27.90;12.47;;;;;;;;;;5032379;28;20175;-77
2023/12/05 06:29:54;;;;;;;26.03;11.27;;;;;;;;;;5038816;28;20182;-77
2023/12/05 06:32:19;;;;;;;29.20;11.47;;;;;;;;;;5047359;28;20193;-78
2023/12/05 06:34:44;;;;;;;31.70;15.67;;;;;;;;;;5046626;28;20182;-79
2023/12/05 06:37:09;;;;;;;30.90;11.50;;;;;;;;;;5050908;28;20185;-78
2023/12/05 06:39:35;;;;;;;31.90;13.30;;;;;;;;;;5042285;28;20190;-78
2023/12/05 06:42:00;;;;;;;29.50;13.40;;;;;;;;;;5047985;28;20188;-77
2023/12/05 06:44:25;;;;;;;32.87;17.20;;;;;;;;;;5039689;28;20253;-78
2023/12/05 06:46:50;;;;;;;35.97;17.10;;;;;;;;;;5040124;28;20182;-78
2023/12/05 06:49:16;;;;;;;38.03;16.17;;;;;;;;;;5046830;28;20246;-77
2023/12/05 06:51:41;;;;;;;46.60;21.33;;;;;;;;;;5033621;28;20187;-78
2023/12/05 06:54:06;;;;;;;46.77;23.57;;;;;;;;;;5044471;28;20174;-77
2023/12/05 06:56:31;;;;;;;49.90;24.37;;;;;;;;;;5042587;28;20182;-77
2023/12/05 06:58:58;;;;;;;37.83;17.60;;;;;;;;;;5039121;28;20177;-77
2023/12/05 07:01:23;;;;;;;46.80;23.83;;;;;;;;;;5046120;28;20179;-77
2023/12/05 07:03:48;;;;;;;44.53;18.87;;;;;;;;;;5036899;28;20206;-77
2023/12/05 07:06:13;;;;;;;40.87;20.13;;;;;;;;;;5043617;28;20200;-78
2023/12/05 07:08:39;;;;;;;45.33;19.73;;;;;;;;;;5046611;28;20170;-77
2023/12/05 07:11:04;;;;;;;39.13;16.57;;;;;;;;;;5038520;28;20206;-77
2023/12/05 07:13:29;;;;;;;32.47;15.63;;;;;;;;;;5038590;28;20178;-77
2023/12/05 07:15:56;;;;;;;31.73;15.67;;;;;;;;;;5046066;28;20256;-77
2023/12/05 07:18:21;;;;;;;34.70;15.43;;;;;;;;;;5040576;28;20178;-77
2023/12/05 07:20:50;;;;;;;32.03;13.77;;;;;;;;;;5038336;28;20239;-77
2023/12/05 07:23:15;;;;;;;29.40;12.80;;;;;;;;;;5041174;28;20201;-77
2023/12/05 07:25:40;;;;;;;29.37;13.30;;;;;;;;;;5044356;28;20171;-78
2023/12/05 07:28:05;;;;;;;25.70;12.50;;;;;;;;;;5048724;28;20166;-78
2023/12/05 07:30:31;;;;;;;27.33;12.97;;;;;;;;;;5042618;28;20180;-78
2023/12/05 07:32:56;;;;;;;32.07;12.30;;;;;;;;;;5046976;28;20197;-77
2023/12/05 07:35:21;;;;;;;28.40;12.60;;;;;;;;;;5042617;28;20170;-77
2023/12/05 07:37:46;;;;;;;26.17;12.10;;;;;;;;;;5029766;28;20201;-77
2023/12/05 07:40:12;;;;;;;23.47;10.93;;;;;;;;;;5043199;28;20178;-77
2023/12/05 07:42:37;;;;;;;22.60;11.87;;;;;;;;;;5030533;28;20225;-76
2023/12/05 07:45:04;;;;;;;24.40;13.03;;;;;;;;;;5033901;28;20182;-77
2023/12/05 07:47:29;;;;;;;22.57;12.60;;;;;;;;;;5044427;28;20194;-77
2023/12/05 07:49:54;;;;;;;23.43;10.93;;;;;;;;;;5037308;28;20210;-76
2023/12/05 07:52:20;;;;;;;26.20;12.33;;;;;;;;;;5047505;28;20170;-77
2023/12/05 07:54:45;;;;;;;22.50;10.67;;;;;;;;;;5042282;28;20202;-76
2023/12/05 07:57:10;;;;;;;19.27;10.47;;;;;;;;;;5034933;28;20218;-77
2023/12/05 07:59:36;;;;;;;27.03;11.37;;;;;;;;;;5044599;28;20197;-76
2023/12/05 08:02:01;;;;;;;21.33;10.77;;;;;;;;;;5048625;28;20182;-76
2023/12/05 08:04:26;;;;;;;23.43;13.33;;;;;;;;;;5044623;28;20189;-77
2023/12/05 08:06:51;;;;;;;22.23;10.50;;;;;;;;;;5049008;28;20178;-77
2023/12/05 08:09:16;;;;;;;21.70;11.70;;;;;;;;;;5042158;28;20174;-76
2023/12/05 08:11:42;;;;;;;27.70;12.07;;;;;;;;;;5043186;28;20170;-78
2023/12/05 08:14:07;;;;;;;20.77;10.43;;;;;;;;;;5037987;28;20209;-77
2023/12/05 08:16:33;;;;;;;20.23;9.90;;;;;;;;;;5043056;28;20178;-77
2023/12/05 08:18:58;;;;;;;22.20;10.90;;;;;;;;;;5041471;28;20182;-77
2023/12/05 08:21:23;;;;;;;17.13;9.10;;;;;;;;;;5036985;28;20178;-77
2023/12/05 08:23:48;;;;;;;23.03;11.80;;;;;;;;;;5041685;28;20233;-77
2023/12/05 08:26:13;;;;;;;18.77;10.33;;;;;;;;;;5041750;28;20174;-77
2023/12/05 08:28:39;;;;;;;18.87;8.67;;;;;;;;;;5045014;28;20202;-77
2023/12/05 08:31:04;;;;;;;14.10;7.37;;;;;;;;;;5032073;28;20184;-77
2023/12/05 08:33:29;;;;;;;15.00;10.00;;;;;;;;;;5039820;28;20255;-77
2023/12/05 08:35:54;;;;;;;15.77;7.97;;;;;;;;;;5047475;28;20186;-77
2023/12/05 08:38:20;;;;;;;14.80;7.90;;;;;;;;;;5037882;28;20274;-78
2023/12/05 08:40:45;;;;;;;15.77;7.10;;;;;;;;;;5034470;28;20265;-77
2023/12/05 08:43:10;;;;;;;20.17;12.10;;;;;;;;;;5043180;28;20232;-77
2023/12/05 08:45:35;;;;;;;12.47;7.30;;;;;;;;;;5046260;28;20166;-77
2023/12/05 08:48:01;;;;;;;13.13;7.47;;;;;;;;;;5043313;28;20178;-77
2023/12/05 08:50:26;;;;;;;11.23;6.47;;;;;;;;;;5047433;28;20176;-78
2023/12/05 08:52:52;;;;;;;13.30;6.07;;;;;;;;;;5038125;28;20205;-77
2023/12/05 08:55:17;;;;;;;11.23;6.83;;;;;;;;;;5032378;28;20175;-78
2023/12/05 08:57:42;;;;;;;11.00;7.13;;;;;;;;;;5038066;28;20230;-77
2023/12/05 09:00:08;;;;;;;11.93;5.63;;;;;;;;;;5036450;28;20205;-78
2023/12/05 09:02:33;;;;;;;11.93;6.23;;;;;;;;;;5046812;28;20255;-78
2023/12/05 09:05:00;;;;;;;11.47;5.60;;;;;;;;;;5042093;28;20305;-76
2023/12/05 09:07:25;;;;;;;10.80;7.03;;;;;;;;;;5040272;28;20177;-77
2023/12/05 09:09:51;;;;;;;11.67;4.97;;;;;;;;;;5042407;28;20171;-76
2023/12/05 09:12:16;;;;;;;7.53;4.83;;;;;;;;;;5036631;28;20179;-77
2023/12/05 09:14:42;;;;;;;9.07;4.63;;;;;;;;;;5040261;28;20186;-77
2023/12/05 09:17:09;;;;;;;7.47;5.60;;;;;;;;;;5044543;28;20182;-73
2023/12/05 09:19:34;;;;;;;11.60;4.17;;;;;;;;;;5040263;28;20171;-76
2023/12/05 09:21:59;;;;;;;4.17;3.53;;;;;;;;;;5040284;28;20270;-76
2023/12/05 09:24:25;;;;;;;8.47;4.00;;;;;;;;;;5046547;28;20253;-76
2023/12/05 09:26:50;;;;;;;7.60;3.50;;;;;;;;;;5031001;28;20174;-76
2023/12/05 09:29:15;;;;;;;4.43;3.40;;;;;;;;;;5043006;28;20178;-75
2023/12/05 09:31:41;;;;;;;5.47;3.30;;;;;;;;;;5045741;28;20189;-75
2023/12/05 09:34:06;;;;;;;4.33;3.03;;;;;;;;;;5045697;28;20663;-77
2023/12/05 09:36:31;;;;;;;4.43;3.50;;;;;;;;;;5043800;28;20178;-76
2023/12/05 09:38:56;;;;;;;7.30;4.47;;;;;;;;;;5040724;28;20178;-75
2023/12/05 09:41:22;;;;;;;5.73;2.90;;;;;;;;;;5045082;28;20185;-75
2023/12/05 09:43:48;;;;;;;6.33;2.83;;;;;;;;;;5033471;28;20198;-76
2023/12/05 09:46:15;;;;;;;4.70;3.77;;;;;;;;;;5040440;28;20167;-76
2023/12/05 09:48:45;;;;;;;4.83;3.00;;;;;;;;;;5034008;28;20182;-75
2023/12/05 09:51:10;;;;;;;11.13;5.23;;;;;;;;;;5033662;28;20174;-75
2023/12/05 09:53:35;;;;;;;11.63;4.73;;;;;;;;;;5041778;28;20189;-75
2023/12/05 09:56:01;;;;;;;4.30;2.87;;;;;;;;;;5040048;28;20177;-75
2023/12/05 09:58:26;;;;;;;4.07;2.57;;;;;;;;;;5031851;28;20300;-76
2023/12/05 10:00:54;;;;;;;5.87;3.77;;;;;;;;;;5040314;28;20217;-75
2023/12/05 10:03:21;;;;;;;5.53;3.50;;;;;;;;;;5045380;28;20194;-75
2023/12/05 10:05:48;;;;;;;4.20;2.53;;;;;;;;;;5032802;28;20206;-76
2023/12/05 10:08:14;;;;;;;3.83;2.37;;;;;;;;;;5034509;28;20486;-75
2023/12/05 10:10:42;;;;;;;4.40;2.87;;;;;;;;;;5040124;28;20181;-75
2023/12/05 10:13:09;;;;;;;2.93;2.43;;;;;;;;;;5044105;28;20212;-74
2023/12/05 10:15:34;;;;;;;5.30;2.83;;;;;;;;;;5041697;28;20170;-74
2023/12/05 10:17:59;;;;;;;2.80;2.13;;;;;;;;;;5040160;28;20190;-75
2023/12/05 10:20:25;;;;;;;3.77;3.47;;;;;;;;;;5039640;28;20186;-75
2023/12/05 10:22:51;;;;;;;2.57;2.23;;;;;;;;;;5033113;28;20284;-74
2023/12/05 10:25:16;;;;;;;4.03;2.03;;;;;;;;;;5034479;28;20178;-75
2023/12/05 10:27:41;;;;;;;2.43;2.23;;;;;;;;;;5039213;28;20245;-75
2023/12/05 10:30:07;;;;;;;2.00;1.83;;;;;;;;;;5036373;28;20174;-75
2023/12/05 10:32:32;;;;;;;2.70;2.47;;;;;;;;;;5038619;28;20213;-76
2023/12/05 10:34:57;;;;;;;2.33;1.70;;;;;;;;;;5041688;28;20182;-76
2023/12/05 10:37:22;;;;;;;4.30;2.20;;;;;;;;;;5047118;28;20174;-76
2023/12/05 10:39:48;;;;;;;2.67;1.90;;;;;;;;;;5038712;28;20206;-75
2023/12/05 10:42:13;;;;;;;3.40;1.90;;;;;;;;;;5046004;28;20194;-75
2023/12/05 10:44:39;;;;;;;3.43;1.77;;;;;;;;;;5037093;28;20357;-75
2023/12/05 10:47:06;;;;;;;3.40;1.80;;;;;;;;;;5031983;28;20174;-74
2023/12/05 10:49:32;;;;;;;3.43;2.10;;;;;;;;;;5039776;28;20179;-75
2023/12/05 10:51:57;;;;;;;3.33;1.80;;;;;;;;;;5035992;28;20185;-75
2023/12/05 10:54:24;;;;;;;4.07;2.13;;;;;;;;;;5047479;28;20373;-74
2023/12/05 10:56:57;;;;;;;1.73;1.50;;;;;;;;;;5046022;28;20237;-74
2023/12/05 10:59:23;;;;;;;4.50;1.77;;;;;;;;;;5042599;28;20174;-75
2023/12/05 11:01:49;;;;;;;3.27;1.70;;;;;;;;;;5027922;28;20190;-75
2023/12/05 11:04:14;;;;;;;2.57;1.80;;;;;;;;;;5041555;28;20206;-75
2023/12/05 11:06:39;;;;;;;2.30;2.10;;;;;;;;;;5048519;28;20182;-75
2023/12/05 11:09:05;;;;;;;2.33;1.73;;;;;;;;;;5047428;28;20182;-75
2023/12/05 11:11:32;;;;;;;1.47;1.33;;;;;;;;;;5047317;28;20171;-75
2023/12/05 11:13:58;;;;;;;2.00;1.90;;;;;;;;;;5044569;28;20177;-75
2023/12/05 11:16:24;;;;;;;1.63;1.53;;;;;;;;;;5035453;28;20186;-75
2023/12/05 11:18:55;;;;;;;2.00;1.57;;;;;;;;;;5041396;28;20218;-75
2023/12/05 11:21:29;;;;;;;3.43;1.77;;;;;;;;;;5041995;28;20181;-75
2023/12/05 11:24:13;;;;;;;1.87;1.40;;;;;;;;;;5033208;28;20201;-75
2023/12/05 11:27:02;;;;;;;2.20;1.43;;;;;;;;;;5048990;28;20182;-75
2023/12/05 11:29:46;;;;;;;1.73;1.10;;;;;;;;;;5026001;28;20232;-75
2023/12/05 11:32:14;;;;;;;1.57;1.23;;;;;;;;;;5033445;28;20197;-75
2023/12/05 11:34:48;;;;;;;1.30;1.20;;;;;;;;;;5041223;28;20208;-75
2023/12/05 11:37:33;;;;;;;2.40;1.33;;;;;;;;;;5037988;28;20226;-75
2023/12/05 11:39:59;;;;;;;1.73;1.47;;;;;;;;;;5043430;28;20178;-75
2023/12/05 11:42:24;;;;;;;1.63;1.07;;;;;;;;;;5038280;28;20207;-75
2023/12/05 11:44:49;;;;;;;3.83;1.10;;;;;;;;;;5049689;28;20264;-76
2023/12/05 11:47:16;;;;;;;1.53;1.20;;;;;;;;;;5041868;28;20255;-76
2023/12/05 11:49:49;;;;;;;1.77;1.20;;;;;;;;;;5038721;28;20171;-75
2023/12/05 11:52:15;;;;;;;1.87;1.00;;;;;;;;;;5042497;28;20177;-75
2023/12/05 11:54:43;;;;;;;2.93;1.20;;;;;;;;;;5042066;28;20261;-75
2023/12/05 11:57:09;;;;;;;1.50;1.27;;;;;;;;;;5035755;28;20267;-75
2023/12/05 11:59:45;;;;;;;2.37;1.20;;;;;;;;;;5043213;28;20170;-75
2023/12/05 12:02:28;;;;;;;3.17;1.40;;;;;;;;;;5034193;28;20204;-75
2023/12/05 12:05:00;;;;;;;1.47;1.27;;;;;;;;;;5041040;28;20265;-75
2023/12/05 12:07:25;;;;;;;3.27;1.07;;;;;;;;;;5046911;28;20194;-75
2023/12/05 12:09:51;;;;;;;3.73;1.80;;;;;;;;;;5039559;28;20209;-77
2023/12/05 12:12:16;;;;;;;2.77;1.20;;;;;;;;;;5046751;28;20189;-75
2023/12/05 12:14:41;;;;;;;1.70;1.30;;;;;;;;;;5039967;28;20190;-75
2023/12/05 12:17:11;;;;;;;4.13;2.00;;;;;;;;;;5045536;28;20193;-75
2023/12/05 12:19:37;;;;;;;5.53;4.50;;;;;;;;;;5041968;28;20187;-75
2023/12/05 12:22:09;;;;;;;2.50;1.33;;;;;;;;;;5043275;28;20268;-75
2023/12/05 12:24:34;;;;;;;6.90;3.30;;;;;;;;;;5035965;28;20171;-75
2023/12/05 12:26:59;;;;;;;4.13;1.90;;;;;;;;;;5034644;28;20167;-75
2023/12/05 12:29:28;;;;;;;7.37;2.30;;;;;;;;;;5047757;28;20171;-75
2023/12/05 12:32:04;;;;;;;2.03;1.83;;;;;;;;;;5041551;28;20220;-76
2023/12/05 12:34:29;;;;;;;4.33;2.40;;;;;;;;;;5037508;28;20251;-76
2023/12/05 12:36:56;;;;;;;3.90;2.73;;;;;;;;;;5046671;28;20347;-76
2023/12/05 12:39:23;;;;;;;4.77;1.90;;;;;;;;;;5045350;28;20305;-76
2023/12/05 12:41:48;;;;;;;2.83;1.50;;;;;;;;;;5045968;28;20253;-76
2023/12/05 12:44:15;;;;;;;7.83;2.27;;;;;;;;;;5032917;28;20281;-76
2023/12/05 12:46:40;;;;;;;3.17;1.80;;;;;;;;;;5042157;28;20174;-76
2023/12/05 12:49:06;;;;;;;4.30;1.97;;;;;;;;;;5047540;28;20181;-76
2023/12/05 12:51:34;;;;;;;6.87;2.00;;;;;;;;;;5037559;28;20175;-76
2023/12/05 12:53:59;;;;;;;3.83;2.10;;;;;;;;;;5032775;28;20183;-76
2023/12/05 12:56:25;;;;;;;3.97;2.67;;;;;;;;;;5042353;28;20174;-76
2023/12/05 12:58:50;;;;;;;3.40;2.07;;;;;;;;;;5041021;28;20190;-75
2023/12/05 13:01:17;;;;;;;5.13;2.90;;;;;;;;;;5042269;28;20231;-76
2023/12/05 13:03:43;;;;;;;3.70;2.17;;;;;;;;;;5039495;28;20190;-77
2023/12/05 13:06:08;;;;;;;3.97;2.97;;;;;;;;;;5044051;28;20174;-77
2023/12/05 13:08:33;;;;;;;10.90;6.43;;;;;;;;;;5048200;28;20272;-76
2023/12/05 13:10:59;;;;;;;8.63;4.73;;;;;;;;;;5046663;28;20181;-80
2023/12/05 13:13:24;;;;;;;3.97;2.20;;;;;;;;;;5037172;28;20178;-76
2023/12/05 13:15:49;;;;;;;5.57;3.50;;;;;;;;;;5046208;28;20327;-76
2023/12/05 13:18:14;;;;;;;35.70;16.90;;;;;;;;;;5045369;28;20174;-76
2023/12/05 13:20:51;;;;;;;11.73;6.93;;;;;;;;;;5045647;28;20182;-76
2023/12/05 13:23:17;;;;;;;6.57;3.70;;;;;;;;;;5031587;28;20198;-77
2023/12/05 13:25:42;;;;;;;3.37;2.13;;;;;;;;;;5039210;28;20186;-76
2023/12/05 13:28:07;;;;;;;5.07;2.30;;;;;;;;;;5044187;28;20171;-76
2023/12/05 13:30:33;;;;;;;4.30;2.00;;;;;;;;;;5036916;28;20167;-76
2023/12/05 13:32:59;;;;;;;3.27;1.50;;;;;;;;;;5043593;28;20193;-76
2023/12/05 13:35:24;;;;;;;1.47;1.37;;;;;;;;;;5039832;28;20197;-76
2023/12/05 13:37:49;;;;;;;3.83;1.90;;;;;;;;;;5046475;28;20200;-77
2023/12/05 13:40:15;;;;;;;2.13;1.67;;;;;;;;;;5037231;28;20269;-77
2023/12/05 13:42:40;;;;;;;4.40;1.73;;;;;;;;;;5038426;28;20202;-77
2023/12/05 13:45:05;;;;;;;5.37;1.70;;;;;;;;;;5042847;28;20182;-76
2023/12/05 13:47:31;;;;;;;2.40;1.70;;;;;;;;;;5043161;28;20228;-76
2023/12/05 13:49:57;;;;;;;4.00;2.03;;;;;;;;;;5036911;28;20182;-77
2023/12/05 13:52:22;;;;;;;5.43;3.03;;;;;;;;;;5038907;28;20274;-80
2023/12/05 13:54:48;;;;;;;4.53;1.87;;;;;;;;;;5029320;28;20181;-76
2023/12/05 13:57:13;;;;;;;6.10;2.90;;;;;;;;;;5037860;28;20271;-76
2023/12/05 13:59:38;;;;;;;2.57;1.40;;;;;;;;;;5031384;28;20181;-76
2023/12/05 14:02:04;;;;;;;4.23;2.27;;;;;;;;;;5029022;28;20244;-76
2023/12/05 14:04:30;;;;;;;3.87;2.47;;;;;;;;;;5037622;28;20179;-76
2023/12/05 14:06:55;;;;;;;2.17;1.60;;;;;;;;;;5036514;28;20187;-76
2023/12/05 14:09:21;;;;;;;6.07;2.13;;;;;;;;;;5034545;28;20226;-76
2023/12/05 14:11:46;;;;;;;4.30;2.23;;;;;;;;;;5038338;28;20186;-76
2023/12/05 14:14:12;;;;;;;4.17;1.90;;;;;;;;;;5045550;28;20253;-76
2023/12/05 14:16:38;;;;;;;2.80;1.40;;;;;;;;;;5040634;28;20185;-75
2023/12/05 14:19:03;;;;;;;4.07;1.63;;;;;;;;;;5039142;28;20236;-76
2023/12/05 14:21:29;;;;;;;1.67;1.40;;;;;;;;;;5042646;28;20174;-75